Time,TemperatureF,DewpointF,PressureIn,WindDirection,WindDirectionDegrees,WindSpeedMPH,WindSpeedGustMPH,Humidity,HourlyPrecipIn,Conditions,Clouds,dailyrainin,SoftwareType,DateUTC
2013-10-03 00:14:00,46.3,37.0,25.17,NW,326,3.0,6.0,69,0.00,,,0.00,weatherlink.com 1.10,2013-10-03 06:14:00,
2013-10-03 00:29:00,47.0,37.0,25.17,NNW,345,1.0,5.0,68,0.00,,,0.00,weatherlink.com 1.10,2013-10-03 06:29:00,
2013-10-03 00:44:00,47.4,37.0,25.16,NNW,343,3.0,5.0,68,0.00,,,0.00,weatherlink.com 1.10,2013-10-03 06:44:00,
2013-10-03 00:59:00,47.4,37.0,25.15,NNW,328,1.0,4.0,68,0.00,,,0.00,weatherlink.com 1.10,2013-10-03 06:59:00,
2013-10-03 01:14:00,47.9,37.0,25.15,NW,323,1.0,3.0,67,0.00,,,0.00,weatherlink.com 1.10,2013-10-03 07:14:00,
2013-10-03 01:30:00,48.2,37.0,25.15,NNW,345,2.0,3.0,66,0.00,,,0.00,weatherlink.com 1.10,2013-10-03 07:30:00,
2013-10-03 01:45:00,48.4,38.0,25.15,NNW,338,1.0,3.0,67,0.00,,,0.00,weatherlink.com 1.10,2013-10-03 07:45:00,
2013-10-03 02:00:00,48.5,38.0,25.14,NNE,13,0.0,3.0,66,0.00,,,0.00,weatherlink.com 1.10,2013-10-03 08:00:00,
2013-10-03 02:15:00,48.5,38.0,25.14,NNW,329,3.0,3.0,67,0.00,,,0.00,weatherlink.com 1.10,2013-10-03 08:15:00,
2013-10-03 02:30:00,48.7,39.0,25.13,NNE,18,0.0,2.0,68,0.00,,,0.00,weatherlink.com 1.10,2013-10-03 08:30:00,
2013-10-03 02:45:00,48.9,38.0,25.13,NE,39,0.0,2.0,67,0.00,,,0.00,weatherlink.com 1.10,2013-10-03 08:45:00,
2013-10-03 03:00:00,49.0,38.0,25.12,NE,44,1.0,2.0,67,0.00,,,0.00,weatherlink.com 1.10,2013-10-03 09:00:00,
2013-10-03 03:15:00,49.0,38.0,25.13,NE,44,0.0,2.0,67,0.00,,,0.00,weatherlink.com 1.10,2013-10-03 09:15:00,
2013-10-03 03:30:00,48.8,38.0,25.12,NE,44,0.0,2.0,67,0.00,,,0.00,weatherlink.com 1.10,2013-10-03 09:30:00,
2013-10-03 03:45:00,48.0,38.0,25.12,NNE,24,1.0,3.0,68,0.00,,,0.00,weatherlink.com 1.10,2013-10-03 09:45:00,
2013-10-03 04:00:00,46.6,38.0,25.11,NNE,26,0.0,1.0,72,0.00,,,0.00,weatherlink.com 1.10,2013-10-03 10:00:00,
2013-10-03 04:15:00,45.9,38.0,25.12,NNE,26,0.0,0.0,73,0.00,,,0.00,weatherlink.com 1.10,2013-10-03 10:15:00,
2013-10-03 04:30:00,45.2,37.0,25.12,NNE,25,0.0,1.0,74,0.00,,,0.00,weatherlink.com 1.10,2013-10-03 10:30:00,
2013-10-03 04:45:00,44.9,37.0,25.13,North,6,0.0,2.0,75,0.00,,,0.00,weatherlink.com 1.10,2013-10-03 10:45:00,
2013-10-03 05:00:00,44.8,38.0,25.15,NNW,327,2.0,9.0,77,0.00,,,0.00,weatherlink.com 1.10,2013-10-03 11:00:00,
2013-10-03 05:15:00,46.1,39.0,25.14,North,6,5.0,8.0,76,0.00,,,0.00,weatherlink.com 1.10,2013-10-03 11:15:00,
2013-10-03 05:30:00,46.1,39.0,25.14,North,349,3.0,6.0,75,0.00,,,0.00,weatherlink.com 1.10,2013-10-03 11:30:00,
2013-10-03 05:45:00,46.1,38.0,25.13,NNE,27,3.0,5.0,73,0.00,,,0.00,weatherlink.com 1.10,2013-10-03 11:45:00,
2013-10-03 06:00:00,45.6,38.0,25.12,NNE,23,1.0,7.0,74,0.00,,,0.00,weatherlink.com 1.10,2013-10-03 12:00:00,
2013-10-03 06:15:00,44.7,37.0,25.12,North,7,0.0,3.0,75,0.00,,,0.00,weatherlink.com 1.10,2013-10-03 12:15:00,
2013-10-03 06:30:00,43.9,37.0,25.12,North,358,0.0,5.0,76,0.00,,,0.00,weatherlink.com 1.10,2013-10-03 12:30:00,
2013-10-03 06:45:00,43.7,37.0,25.11,NNE,32,1.0,6.0,76,0.00,,,0.00,weatherlink.com 1.10,2013-10-03 12:45:00,
2013-10-03 07:00:00,43.6,37.0,25.12,WNW,282,1.0,3.0,77,0.00,,,0.00,weatherlink.com 1.10,2013-10-03 13:00:00,
2013-10-03 07:15:00,43.3,37.0,25.12,NW,313,0.0,4.0,78,0.00,,,0.00,weatherlink.com 1.10,2013-10-03 13:15:00,
2013-10-03 07:30:00,43.1,37.0,25.12,NW,325,1.0,2.0,79,0.00,,,0.00,weatherlink.com 1.10,2013-10-03 13:30:00,
2013-10-03 07:45:00,42.8,37.0,25.12,NW,326,3.0,4.0,81,0.00,,,0.00,weatherlink.com 1.10,2013-10-03 13:45:00,
2013-10-03 08:00:00,42.9,38.0,25.13,NNW,332,4.0,6.0,82,0.00,,,0.00,weatherlink.com 1.10,2013-10-03 14:00:00,
2013-10-03 08:15:00,44.7,39.0,25.12,NNW,336,1.0,6.0,80,0.00,,,0.00,weatherlink.com 1.10,2013-10-03 14:15:00,
2013-10-03 08:30:00,46.8,40.0,25.13,NNE,25,5.0,11.0,76,0.00,,,0.00,weatherlink.com 1.10,2013-10-03 14:30:00,
2013-10-03 08:45:00,47.3,40.0,25.13,NE,41,8.0,11.0,76,0.00,,,0.00,weatherlink.com 1.10,2013-10-03 14:45:00,
2013-10-03 09:00:00,47.8,40.0,25.13,NNE,29,11.0,12.0,75,0.00,,,0.00,weatherlink.com 1.10,2013-10-03 15:00:00,
2013-10-03 09:15:00,48.4,40.0,25.13,NNE,27,7.0,11.0,74,0.00,,,0.00,weatherlink.com 1.10,2013-10-03 15:15:00,
2013-10-03 09:30:00,49.7,41.0,25.13,NNE,16,6.0,10.0,72,0.00,,,0.00,weatherlink.com 1.10,2013-10-03 15:30:00,
2013-10-03 09:45:00,50.3,41.0,25.12,NNW,343,3.0,11.0,70,0.00,,,0.00,weatherlink.com 1.10,2013-10-03 15:45:00,
2013-10-03 10:00:00,51.6,42.0,25.12,NNE,30,6.0,11.0,69,0.00,,,0.00,weatherlink.com 1.10,2013-10-03 16:00:00,
2013-10-03 10:15:00,52.8,42.0,25.11,NE,34,6.0,14.0,66,0.00,,,0.00,weatherlink.com 1.10,2013-10-03 16:15:00,
2013-10-03 10:30:00,53.7,42.0,25.11,NNE,29,8.0,13.0,65,0.00,,,0.00,weatherlink.com 1.10,2013-10-03 16:30:00,
2013-10-03 10:45:00,53.6,42.0,25.11,NNE,20,8.0,13.0,66,0.00,,,0.00,weatherlink.com 1.10,2013-10-03 16:45:00,
2013-10-03 11:00:00,54.7,43.0,25.11,NE,37,8.0,12.0,64,0.00,,,0.00,weatherlink.com 1.10,2013-10-03 17:00:00,
2013-10-03 11:15:00,55.4,42.0,25.11,NNE,22,5.0,10.0,62,0.00,,,0.00,weatherlink.com 1.10,2013-10-03 17:15:00,
2013-10-03 11:30:00,54.7,43.0,25.10,NNE,23,4.0,8.0,65,0.00,,,0.00,weatherlink.com 1.10,2013-10-03 17:30:00,
2013-10-03 11:45:00,55.4,43.0,25.11,NE,37,8.0,8.0,64,0.00,,,0.00,weatherlink.com 1.10,2013-10-03 17:45:00,
2013-10-03 12:00:00,54.6,43.0,25.10,NNE,27,6.0,9.0,66,0.00,,,0.00,weatherlink.com 1.10,2013-10-03 18:00:00,
2013-10-03 12:15:00,54.7,44.0,25.10,NE,53,4.0,9.0,68,0.00,,,0.00,weatherlink.com 1.10,2013-10-03 18:15:00,
2013-10-03 12:30:00,55.0,44.0,25.10,NE,56,9.0,9.0,67,0.00,,,0.00,weatherlink.com 1.10,2013-10-03 18:30:00,
2013-10-03 12:45:00,54.8,44.0,25.09,NNE,25,12.0,14.0,68,0.00,,,0.00,weatherlink.com 1.10,2013-10-03 18:45:00,
2013-10-03 13:00:00,54.2,44.0,25.09,NE,37,7.0,10.0,69,0.00,,,0.00,weatherlink.com 1.10,2013-10-03 19:00:00,
2013-10-03 13:30:00,53.9,44.0,25.08,NE,43,8.0,10.0,70,0.00,,,0.00,weatherlink.com 1.10,2013-10-03 19:30:00,
2013-10-03 13:45:00,53.6,44.0,25.08,NNE,27,5.0,10.0,71,0.00,,,0.00,weatherlink.com 1.10,2013-10-03 19:45:00,
2013-10-03 14:00:00,52.7,44.0,25.08,NE,49,9.0,11.0,73,0.00,,,0.00,weatherlink.com 1.10,2013-10-03 20:00:00,
2013-10-03 14:15:00,52.4,45.0,25.07,NE,53,6.0,13.0,75,0.00,,,0.00,weatherlink.com 1.10,2013-10-03 20:15:00,
2013-10-03 14:31:00,51.7,44.0,25.07,ENE,65,7.0,15.0,76,0.00,,,0.00,weatherlink.com 1.10,2013-10-03 20:31:00,
2013-10-03 14:46:00,51.8,45.0,25.07,ENE,60,10.0,13.0,77,0.00,,,0.00,weatherlink.com 1.10,2013-10-03 20:46:00,
2013-10-03 15:01:00,52.2,45.0,25.06,East,84,6.0,15.0,77,0.00,,,0.00,weatherlink.com 1.10,2013-10-03 21:01:00,
2013-10-03 15:16:00,52.4,45.0,25.06,ENE,62,4.0,13.0,77,0.00,,,0.00,weatherlink.com 1.10,2013-10-03 21:16:00,
2013-10-03 15:31:00,52.6,45.0,25.06,NNE,28,6.0,13.0,76,0.00,,,0.00,weatherlink.com 1.10,2013-10-03 21:31:00,
2013-10-03 15:46:00,52.1,45.0,25.07,NE,52,3.0,14.0,78,0.00,,,0.00,weatherlink.com 1.10,2013-10-03 21:46:00,
2013-10-03 16:01:00,50.6,45.0,25.07,ENE,67,8.0,13.0,82,0.00,,,0.00,weatherlink.com 1.10,2013-10-03 22:01:00,
2013-10-03 16:16:00,50.0,45.0,25.07,NE,46,10.0,14.0,84,0.00,,,0.00,weatherlink.com 1.10,2013-10-03 22:16:00,
2013-10-03 16:31:00,49.4,45.0,25.07,NE,41,8.0,13.0,86,0.00,,,0.00,weatherlink.com 1.10,2013-10-03 22:31:00,
2013-10-03 16:46:00,49.1,45.0,25.07,NE,56,6.0,9.0,87,0.00,,,0.00,weatherlink.com 1.10,2013-10-03 22:46:00,
2013-10-03 17:01:00,48.2,46.0,25.07,NNE,16,8.0,12.0,91,0.00,,,0.00,weatherlink.com 1.10,2013-10-03 23:01:00,
2013-10-03 17:16:00,47.6,46.0,25.08,NNE,29,7.0,11.0,93,0.00,,,0.00,weatherlink.com 1.10,2013-10-03 23:16:00,
2013-10-03 17:31:00,47.3,46.0,25.08,NNE,32,8.0,11.0,94,0.00,,,0.00,weatherlink.com 1.10,2013-10-03 23:31:00,
2013-10-03 17:46:00,47.0,45.0,25.08,NNE,32,9.0,13.0,94,0.00,,,0.00,weatherlink.com 1.10,2013-10-03 23:46:00,
2013-10-03 18:01:00,46.9,46.0,25.08,NE,44,7.0,11.0,95,0.01,,,0.01,weatherlink.com 1.10,2013-10-04 00:01:00,
2013-10-03 18:16:00,46.3,45.0,25.09,NE,34,11.0,14.0,95,0.01,,,0.01,weatherlink.com 1.10,2013-10-04 00:16:00,
2013-10-03 18:31:00,46.1,45.0,25.10,NE,36,7.0,9.0,95,0.01,,,0.01,weatherlink.com 1.10,2013-10-04 00:31:00,
2013-10-03 18:46:00,45.8,45.0,25.10,NNE,27,5.0,11.0,95,0.01,,,0.01,weatherlink.com 1.10,2013-10-04 00:46:00,
2013-10-03 19:01:00,45.7,45.0,25.10,NE,41,8.0,13.0,96,0.00,,,0.01,weatherlink.com 1.10,2013-10-04 01:01:00,
2013-10-03 19:16:00,45.6,45.0,25.09,NE,39,8.0,12.0,96,0.00,,,0.01,weatherlink.com 1.10,2013-10-04 01:16:00,
2013-10-03 19:31:00,45.4,44.0,25.10,NE,40,8.0,12.0,96,0.00,,,0.01,weatherlink.com 1.10,2013-10-04 01:31:00,
2013-10-03 19:46:00,45.2,44.0,25.10,NNE,31,7.0,14.0,96,0.00,,,0.01,weatherlink.com 1.10,2013-10-04 01:46:00,
2013-10-03 20:01:00,45.2,44.0,25.10,NNE,33,10.0,13.0,96,0.00,,,0.01,weatherlink.com 1.10,2013-10-04 02:01:00,
2013-10-03 20:16:00,45.0,44.0,25.10,NNE,33,8.0,11.0,96,0.00,,,0.01,weatherlink.com 1.10,2013-10-04 02:16:00,
2013-10-03 20:31:00,44.9,44.0,25.11,NE,43,7.0,12.0,96,0.00,,,0.01,weatherlink.com 1.10,2013-10-04 02:31:00,
2013-10-03 20:46:00,44.9,44.0,25.11,ENE,63,6.0,9.0,96,0.00,,,0.01,weatherlink.com 1.10,2013-10-04 02:46:00,
2013-10-03 21:01:00,44.8,44.0,25.11,NE,53,9.0,11.0,96,0.00,,,0.01,weatherlink.com 1.10,2013-10-04 03:01:00,
2013-10-03 21:17:00,44.7,44.0,25.11,NNE,27,9.0,10.0,96,0.00,,,0.01,weatherlink.com 1.10,2013-10-04 03:17:00,
2013-10-03 21:32:00,44.7,44.0,25.10,NE,34,6.0,12.0,96,0.00,,,0.01,weatherlink.com 1.10,2013-10-04 03:32:00,
2013-10-03 21:47:00,44.5,44.0,25.10,NNE,32,8.0,11.0,96,0.00,,,0.01,weatherlink.com 1.10,2013-10-04 03:47:00,
2013-10-03 22:32:00,44.1,43.0,25.10,NE,34,8.0,10.0,97,0.00,,,0.01,weatherlink.com 1.10,2013-10-04 04:32:00,
2013-10-03 22:47:00,44.1,43.0,25.09,NE,34,6.0,11.0,97,0.00,,,0.01,weatherlink.com 1.10,2013-10-04 04:47:00,
2013-10-03 23:02:00,44.0,43.0,25.07,NE,46,4.0,9.0,97,0.00,,,0.01,weatherlink.com 1.10,2013-10-04 05:02:00,
2013-10-03 23:17:00,43.9,43.0,25.07,NNE,32,10.0,12.0,97,0.00,,,0.01,weatherlink.com 1.10,2013-10-04 05:17:00,
2013-10-03 23:32:00,43.6,43.0,25.08,NNE,31,4.0,11.0,97,0.00,,,0.01,weatherlink.com 1.10,2013-10-04 05:32:00,
2013-10-03 23:47:00,43.5,43.0,25.07,NE,38,9.0,11.0,97,0.00,,,0.01,weatherlink.com 1.10,2013-10-04 05:47:00,